createdAt,value
2018-01-18T00:00:24.106Z,3.84
2018-01-18T00:02:17.003Z,3.80
2018-01-18T00:03:17.016Z,3.83
2018-01-18T00:05:09.931Z,3.86
2018-01-18T00:06:09.927Z,3.80
2018-01-18T00:08:02.846Z,3.78
2018-01-18T00:09:02.838Z,3.84
2018-01-18T00:10:55.738Z,3.76
2018-01-18T00:11:55.752Z,3.83
2018-01-18T00:13:48.668Z,3.80
2018-01-18T00:14:48.668Z,3.83
2018-01-18T00:16:41.564Z,3.83
2018-01-18T00:17:41.576Z,3.83
2018-01-18T00:19:34.489Z,3.83
2018-01-18T00:20:34.483Z,3.78
2018-01-18T00:22:27.382Z,3.87
2018-01-18T00:23:27.396Z,3.86
2018-01-18T00:25:20.320Z,3.91
2018-01-18T00:26:20.309Z,3.88
2018-01-18T00:28:13.226Z,3.86
2018-01-18T00:29:13.223Z,3.87
2018-01-18T00:31:06.118Z,3.87
2018-01-18T00:32:06.131Z,3.87
2018-01-18T00:33:59.048Z,3.93
2018-01-18T00:34:59.044Z,3.90
2018-01-18T00:36:51.942Z,3.90
2018-01-18T00:37:52.000Z,3.90
2018-01-18T00:39:44.880Z,3.90
2018-01-18T00:40:44.875Z,3.91
2018-01-18T00:42:37.777Z,3.78
2018-01-18T00:43:37.791Z,3.87
2018-01-18T00:45:30.705Z,3.91
2018-01-18T00:46:30.702Z,3.93
2018-01-18T00:48:23.616Z,3.86
2018-01-18T00:49:23.611Z,3.86
2018-01-18T00:51:16.508Z,3.96
2018-01-18T00:52:16.521Z,3.94
2018-01-18T00:54:09.448Z,3.93
2018-01-18T00:55:09.441Z,4.00
2018-01-18T00:57:02.392Z,3.96
2018-01-18T00:58:02.356Z,4.04
2018-01-18T00:59:55.271Z,4.02
2018-01-18T01:00:55.267Z,4.06
2018-01-18T01:02:48.162Z,3.97
2018-01-18T01:03:48.176Z,4.00
2018-01-18T01:05:41.092Z,4.02
2018-01-18T01:06:41.088Z,3.97
2018-01-18T01:08:34.007Z,4.06
2018-01-18T01:09:34.004Z,4.02
2018-01-18T01:11:26.902Z,4.08
2018-01-18T01:12:26.914Z,3.98
2018-01-18T01:14:19.829Z,4.11
2018-01-18T01:15:19.826Z,4.11
2018-01-18T01:17:12.751Z,4.06
2018-01-18T01:18:12.743Z,4.02
2018-01-18T01:20:05.657Z,3.98
2018-01-18T01:21:05.652Z,3.96
2018-01-18T01:22:58.588Z,4.04
2018-01-18T01:23:58.572Z,4.05
2018-01-18T01:25:51.495Z,4.14
2018-01-18T01:26:51.489Z,4.06
2018-01-18T01:28:44.421Z,4.08
2018-01-18T01:29:44.406Z,4.12
2018-01-18T01:31:37.302Z,4.12
2018-01-18T01:32:37.316Z,4.11
2018-01-18T01:34:30.248Z,4.08
2018-01-18T01:35:30.232Z,4.15
2018-01-18T01:37:23.155Z,4.24
2018-01-18T01:38:23.151Z,4.12
2018-01-18T01:40:16.063Z,4.08
2018-01-18T01:41:16.061Z,4.12
2018-01-18T01:43:08.964Z,4.09
2018-01-18T01:44:08.968Z,4.11
2018-01-18T01:46:01.933Z,4.09
2018-01-18T01:47:01.881Z,4.22
2018-01-18T01:48:54.799Z,4.18
2018-01-18T01:49:54.794Z,4.16
2018-01-18T01:51:47.691Z,4.20
2018-01-18T01:52:47.705Z,4.16
2018-01-18T01:54:40.625Z,4.27
2018-01-18T01:55:40.616Z,4.18
2018-01-18T01:57:33.512Z,4.29
2018-01-18T01:58:33.527Z,4.32
2018-01-18T02:00:26.499Z,4.26
2018-01-18T02:01:26.437Z,4.30
2018-01-18T02:03:19.365Z,4.30
2018-01-18T02:04:19.354Z,4.29
2018-01-18T02:06:12.269Z,4.33
2018-01-18T02:07:12.266Z,4.42
2018-01-18T02:09:05.186Z,4.41
2018-01-18T02:10:05.185Z,4.41
2018-01-18T02:11:58.082Z,4.41
2018-01-18T02:12:58.092Z,4.45
2018-01-18T02:14:51.012Z,4.44
2018-01-18T02:15:51.012Z,4.36
2018-01-18T02:17:43.911Z,4.37
2018-01-18T02:18:43.927Z,4.33
2018-01-18T02:20:36.871Z,4.44
2018-01-18T02:21:36.848Z,4.42
2018-01-18T02:23:29.748Z,4.42
2018-01-18T02:24:29.760Z,4.37
2018-01-18T02:26:22.680Z,4.42
2018-01-18T02:27:22.675Z,4.40
2018-01-18T02:29:15.596Z,4.51
2018-01-18T02:30:15.593Z,4.48
2018-01-18T02:32:08.491Z,4.42
2018-01-18T02:33:08.505Z,4.40
2018-01-18T02:35:01.422Z,4.47
2018-01-18T02:36:01.433Z,4.45
2018-01-18T02:37:54.317Z,4.50
2018-01-18T02:38:54.332Z,4.48
2018-01-18T02:40:47.250Z,4.48
2018-01-18T02:41:47.245Z,4.48
2018-01-18T02:43:40.144Z,4.47
2018-01-18T02:44:40.158Z,4.47
2018-01-18T02:46:33.075Z,4.45
2018-01-18T02:47:33.075Z,4.52
2018-01-18T02:49:25.992Z,4.54
2018-01-18T02:50:25.994Z,4.47
2018-01-18T02:52:18.888Z,4.48
2018-01-18T02:53:18.901Z,4.51
2018-01-18T02:55:11.859Z,4.54
2018-01-18T02:56:11.811Z,4.55
2018-01-18T02:58:04.715Z,4.69
2018-01-18T02:59:04.730Z,4.66
2018-01-18T03:00:57.647Z,4.70
2018-01-18T03:01:57.643Z,4.72
2018-01-18T03:03:50.543Z,4.66
2018-01-18T03:04:50.560Z,4.70
2018-01-18T03:06:43.485Z,4.60
2018-01-18T03:07:43.480Z,4.67
2018-01-18T03:09:36.414Z,4.66
2018-01-18T03:10:36.412Z,4.75
2018-01-18T03:12:29.307Z,4.67
2018-01-18T03:13:29.322Z,4.70
2018-01-18T03:15:22.241Z,4.70
2018-01-18T03:16:22.238Z,4.75
2018-01-18T03:18:15.140Z,4.86
2018-01-18T03:19:15.154Z,4.80
2018-01-18T03:21:08.070Z,4.80
2018-01-18T03:22:08.067Z,4.84
2018-01-18T03:24:00.963Z,4.86
2018-01-18T03:25:00.978Z,4.82
2018-01-18T03:26:53.894Z,4.85
2018-01-18T03:27:53.891Z,4.88
2018-01-18T03:29:47.310Z,4.78
2018-01-18T03:30:47.308Z,4.86
2018-01-18T03:32:40.205Z,4.85
2018-01-18T03:33:40.226Z,4.85
2018-01-18T03:35:33.142Z,4.82
2018-01-18T03:36:33.140Z,4.86
2018-01-18T03:38:26.036Z,4.84
2018-01-18T03:39:26.051Z,4.80
2018-01-18T03:41:18.972Z,4.85
2018-01-18T03:42:18.971Z,4.89
2018-01-18T03:44:11.868Z,4.91
2018-01-18T03:45:11.884Z,4.91
2018-01-18T03:47:04.800Z,4.91
2018-01-18T03:48:04.793Z,4.88
2018-01-18T03:49:57.711Z,4.88
2018-01-18T03:50:57.713Z,4.85
2018-01-18T03:52:50.610Z,4.85
2018-01-18T03:53:50.624Z,4.80
2018-01-18T03:55:43.538Z,5.02
2018-01-18T03:56:43.535Z,4.97
2018-01-18T03:58:36.448Z,4.92
2018-01-18T03:59:36.454Z,4.92
2018-01-18T04:01:29.369Z,4.91
2018-01-18T04:02:29.367Z,4.96
2018-01-18T04:04:22.262Z,5.03
2018-01-18T04:05:22.288Z,4.92
2018-01-18T04:07:15.210Z,4.97
2018-01-18T04:08:15.194Z,4.96
2018-01-18T04:10:08.110Z,4.92
2018-01-18T04:11:08.126Z,4.91
2018-01-18T04:13:01.012Z,5.00
2018-01-18T04:14:01.030Z,4.88
2018-01-18T04:15:53.968Z,5.00
2018-01-18T04:16:53.965Z,4.88
2018-01-18T04:18:46.868Z,4.96
2018-01-18T04:19:46.894Z,4.89
2018-01-18T04:21:39.801Z,4.88
2018-01-18T04:22:39.798Z,4.92
2018-01-18T04:24:32.736Z,4.97
2018-01-18T04:25:32.748Z,5.00
2018-01-18T04:27:25.637Z,4.97
2018-01-18T04:28:25.631Z,4.97
2018-01-18T04:30:18.554Z,4.99
2018-01-18T04:31:18.559Z,5.03
2018-01-18T04:33:11.450Z,4.97
2018-01-18T04:34:11.466Z,4.91
2018-01-18T04:36:04.382Z,4.99
2018-01-18T04:37:04.378Z,5.00
2018-01-18T04:38:57.277Z,5.04
2018-01-18T04:39:57.293Z,4.94
2018-01-18T04:41:50.209Z,5.00
2018-01-18T04:42:50.208Z,4.99
2018-01-18T04:44:43.106Z,4.94
2018-01-18T04:45:43.120Z,4.88
2018-01-18T04:47:36.036Z,4.99
2018-01-18T04:48:36.035Z,5.00
2018-01-18T04:50:28.964Z,4.99
2018-01-18T04:51:28.959Z,5.03
2018-01-18T04:53:21.859Z,5.06
2018-01-18T04:54:21.875Z,4.94
2018-01-18T04:56:14.791Z,5.00
2018-01-18T04:57:14.787Z,5.00
2018-01-18T04:59:07.722Z,4.96
2018-01-18T05:00:07.705Z,4.88
2018-01-18T05:02:00.621Z,4.91
2018-01-18T05:03:00.617Z,4.94
2018-01-18T05:04:53.544Z,4.82
2018-01-18T05:05:53.540Z,4.77
2018-01-18T05:07:46.450Z,4.84
2018-01-18T05:08:46.449Z,4.82
2018-01-18T05:10:39.859Z,4.85
2018-01-18T05:11:39.858Z,4.63
2018-01-18T05:13:32.753Z,4.72
2018-01-18T05:14:32.766Z,4.66
2018-01-18T05:16:25.686Z,4.59
2018-01-18T05:17:25.680Z,4.58
2018-01-18T05:19:18.615Z,4.60
2018-01-18T05:20:18.630Z,4.55
2018-01-18T05:22:11.589Z,4.55
2018-01-18T05:23:11.586Z,4.62
2018-01-18T05:25:04.526Z,4.51
2018-01-18T05:26:04.539Z,4.42
2018-01-18T05:27:57.499Z,4.50
2018-01-18T05:28:57.503Z,4.33
2018-01-18T05:30:50.963Z,4.33
2018-01-18T05:31:50.961Z,4.40
2018-01-18T05:33:43.905Z,4.33
2018-01-18T05:34:43.913Z,4.30
2018-01-18T05:36:36.872Z,4.33
2018-01-18T05:37:36.870Z,4.15
2018-01-18T05:39:29.812Z,4.24
2018-01-18T05:40:29.821Z,4.15
2018-01-18T05:42:22.785Z,4.09
2018-01-18T05:43:22.805Z,4.09
2018-01-18T05:45:15.716Z,4.11
2018-01-18T05:46:15.729Z,3.98
2018-01-18T05:48:08.690Z,4.05
2018-01-18T05:49:08.685Z,3.98
2018-01-18T05:51:01.647Z,4.04
2018-01-18T05:52:01.639Z,4.06
2018-01-18T05:53:54.608Z,4.11
2018-01-18T05:54:54.592Z,3.98
2018-01-18T05:56:47.550Z,4.08
2018-01-18T05:57:47.547Z,4.05
2018-01-18T05:59:40.486Z,3.94
2018-01-18T06:00:40.501Z,4.00
2018-01-18T06:02:33.458Z,4.05
2018-01-18T06:03:33.457Z,3.97
2018-01-18T06:05:26.398Z,4.04
2018-01-18T06:06:26.411Z,4.08
2018-01-18T06:08:19.371Z,4.15
2018-01-18T06:09:19.366Z,4.14
2018-01-18T06:11:12.323Z,4.06
2018-01-18T06:12:12.319Z,4.11
2018-01-18T06:14:05.258Z,4.14
2018-01-18T06:15:05.272Z,4.12
2018-01-18T06:16:58.227Z,4.20
2018-01-18T06:17:58.224Z,4.11
2018-01-18T06:19:51.168Z,4.15
2018-01-18T06:20:51.179Z,4.14
2018-01-18T06:22:44.138Z,4.15
2018-01-18T06:23:44.134Z,4.33
2018-01-18T06:25:37.074Z,4.33
2018-01-18T06:26:37.088Z,4.22
2018-01-18T06:28:30.060Z,4.29
2018-01-18T06:29:30.043Z,4.32
2018-01-18T06:31:23.001Z,4.30
2018-01-18T06:32:22.997Z,4.37
2018-01-18T06:34:15.948Z,4.50
2018-01-18T06:35:15.951Z,4.47
2018-01-18T06:37:08.915Z,4.45
2018-01-18T06:38:08.906Z,4.41
2018-01-18T06:40:01.847Z,4.58
2018-01-18T06:41:01.864Z,4.55
2018-01-18T06:42:54.817Z,4.58
2018-01-18T06:43:54.817Z,4.52
2018-01-18T06:45:47.753Z,4.54
2018-01-18T06:46:47.767Z,4.54
2018-01-18T06:48:40.734Z,4.55
2018-01-18T06:49:40.724Z,4.66
2018-01-18T06:51:34.192Z,4.69
2018-01-18T06:52:34.189Z,4.67
2018-01-18T06:54:27.128Z,4.77
2018-01-18T06:55:27.148Z,4.73
2018-01-18T06:57:20.100Z,4.82
2018-01-18T06:58:20.097Z,4.80
2018-01-18T07:00:13.036Z,4.92
2018-01-18T07:01:13.053Z,4.96
2018-01-18T07:03:06.013Z,4.89
2018-01-18T07:04:06.006Z,5.03
2018-01-18T07:05:58.943Z,5.04
2018-01-18T07:06:58.960Z,5.12
2018-01-18T07:08:51.921Z,5.13
2018-01-18T07:09:51.914Z,5.13
2018-01-18T07:11:44.902Z,5.35
2018-01-18T07:12:44.869Z,5.38
2018-01-18T07:14:37.811Z,5.33
2018-01-18T07:15:37.822Z,5.25
2018-01-18T07:17:30.784Z,5.42
2018-01-18T07:18:30.780Z,5.39
2018-01-18T07:20:23.715Z,5.48
2018-01-18T07:21:23.729Z,5.46
2018-01-18T07:23:16.686Z,5.53
2018-01-18T07:24:16.692Z,5.51
2018-01-18T07:26:09.627Z,5.57
2018-01-18T07:27:09.640Z,5.63
2018-01-18T07:29:02.601Z,5.61
2018-01-18T07:30:02.592Z,5.57
2018-01-18T07:31:55.560Z,5.75
2018-01-18T07:32:55.547Z,5.75
2018-01-18T07:34:48.494Z,5.75
2018-01-18T07:35:48.503Z,5.79
2018-01-18T07:37:41.466Z,5.86
2018-01-18T07:38:41.458Z,5.90
2018-01-18T07:40:34.397Z,5.85
2018-01-18T07:41:34.420Z,5.81
2018-01-18T07:43:27.372Z,5.89
2018-01-18T07:44:27.366Z,5.90
2018-01-18T07:46:20.304Z,5.90
2018-01-18T07:47:20.318Z,5.82
2018-01-18T07:49:13.277Z,5.91
2018-01-18T07:50:13.272Z,5.91
2018-01-18T07:52:06.233Z,6.01
2018-01-18T07:53:06.227Z,6.00
2018-01-18T07:54:59.167Z,6.04
2018-01-18T07:55:59.181Z,6.09
2018-01-18T07:57:52.141Z,6.14
2018-01-18T07:58:52.136Z,6.14
2018-01-18T08:00:45.074Z,6.14
2018-01-18T08:01:45.090Z,6.27
2018-01-18T08:03:38.050Z,6.17
2018-01-18T08:04:38.143Z,6.19
2018-01-18T08:06:30.983Z,6.31
2018-01-18T08:07:30.998Z,6.30
2018-01-18T08:09:23.958Z,6.33
2018-01-18T08:10:23.962Z,6.41
2018-01-18T08:12:16.919Z,6.31
2018-01-18T08:13:16.907Z,6.31
2018-01-18T08:15:09.845Z,6.46
2018-01-18T08:16:09.862Z,6.44
2018-01-18T08:18:02.823Z,6.51
2018-01-18T08:19:02.818Z,6.49
2018-01-18T08:20:55.753Z,6.48
2018-01-18T08:21:55.772Z,6.48
2018-01-18T08:23:48.728Z,6.55
2018-01-18T08:24:48.723Z,6.59
2018-01-18T08:26:41.690Z,6.70
2018-01-18T08:27:41.679Z,6.67
2018-01-18T08:29:34.641Z,6.77
2018-01-18T08:30:34.634Z,6.79
2018-01-18T08:32:27.591Z,6.79
2018-01-18T08:33:27.586Z,6.94
2018-01-18T08:35:20.524Z,7.03
2018-01-18T08:36:20.544Z,6.94
2018-01-18T08:38:13.500Z,7.12
2018-01-18T08:39:13.592Z,7.12
2018-01-18T08:41:06.435Z,7.27
2018-01-18T08:42:06.450Z,7.31
2018-01-18T08:43:59.409Z,7.37
2018-01-18T08:44:59.408Z,7.46
2018-01-18T08:46:52.390Z,7.50
2018-01-18T08:47:52.361Z,7.48
2018-01-18T08:49:45.314Z,7.67
2018-01-18T08:50:45.312Z,7.74
2018-01-18T08:52:38.272Z,7.92
2018-01-18T08:53:38.271Z,7.92
2018-01-18T08:55:31.209Z,7.97
2018-01-18T08:56:31.223Z,8.07
2018-01-18T08:58:24.187Z,8.15
2018-01-18T08:59:24.178Z,8.25
2018-01-18T09:01:17.140Z,8.33
2018-01-18T09:02:17.135Z,8.33
2018-01-18T09:04:10.086Z,8.50
2018-01-18T09:05:10.087Z,8.50
2018-01-18T09:07:03.027Z,8.61
2018-01-18T09:08:03.049Z,8.66
2018-01-18T09:09:56.000Z,8.65
2018-01-18T09:10:56.011Z,8.74
2018-01-18T09:12:48.965Z,8.79
2018-01-18T09:13:48.956Z,8.66
2018-01-18T09:15:42.011Z,8.65
2018-01-18T09:16:42.009Z,8.66
2018-01-18T09:18:34.966Z,8.74
2018-01-18T09:19:34.964Z,8.79
2018-01-18T09:21:27.907Z,8.77
2018-01-18T09:22:27.921Z,8.83
2018-01-18T09:24:20.873Z,8.91
2018-01-18T09:25:20.877Z,8.92
2018-01-18T09:27:13.810Z,8.94
2018-01-18T09:28:13.834Z,8.91
2018-01-18T09:30:06.787Z,8.87
2018-01-18T09:31:06.780Z,8.91
2018-01-18T09:32:59.731Z,8.91
2018-01-18T09:33:59.739Z,8.89
2018-01-18T09:35:52.703Z,8.84
2018-01-18T09:36:52.687Z,8.96
2018-01-18T09:38:45.674Z,8.99
2018-01-18T09:39:45.645Z,8.99
2018-01-18T09:41:38.618Z,9.01
2018-01-18T09:42:38.600Z,8.96
2018-01-18T09:44:31.549Z,8.94
2018-01-18T09:45:31.545Z,8.95
2018-01-18T09:47:24.527Z,8.96
2018-01-18T09:48:24.502Z,9.08
2018-01-18T09:50:17.535Z,9.10
2018-01-18T09:51:17.474Z,9.08
2018-01-18T09:53:10.410Z,9.14
2018-01-18T09:54:10.409Z,9.14
2018-01-18T09:56:03.344Z,9.11
2018-01-18T09:57:03.364Z,9.21
2018-01-18T09:58:56.318Z,9.04
2018-01-18T09:59:56.320Z,9.08
2018-01-18T10:01:49.766Z,9.04
2018-01-18T10:02:49.809Z,8.91
2018-01-18T10:04:42.739Z,8.95
2018-01-18T10:05:42.748Z,8.92
2018-01-18T10:07:35.679Z,9.01
2018-01-18T10:08:35.696Z,9.05
2018-01-18T10:10:29.159Z,9.13
2018-01-18T10:11:29.161Z,9.11
2018-01-18T10:13:23.362Z,9.23
2018-01-18T10:14:23.148Z,9.28
2018-01-18T10:16:16.111Z,9.21
2018-01-18T10:17:16.091Z,9.23
2018-01-18T10:19:09.488Z,9.17
2018-01-18T10:20:09.470Z,9.23
2018-01-18T10:22:02.372Z,9.18
2018-01-18T10:23:02.392Z,9.21
2018-01-18T10:24:55.363Z,9.10
2018-01-18T10:25:55.368Z,9.10
2018-01-18T10:27:48.317Z,9.04
2018-01-18T10:28:48.330Z,9.04
2018-01-18T10:30:41.272Z,9.02
2018-01-18T10:31:41.294Z,8.95
2018-01-18T10:33:34.264Z,9.01
2018-01-18T10:34:34.233Z,8.95
2018-01-18T10:36:27.204Z,8.99
2018-01-18T10:37:27.182Z,9.01
2018-01-18T10:39:20.137Z,9.02
2018-01-18T10:40:20.160Z,8.99
2018-01-18T10:42:13.582Z,8.89
2018-01-18T10:43:13.601Z,8.83
2018-01-18T10:45:06.713Z,8.95
2018-01-18T10:46:06.677Z,8.81
2018-01-18T10:47:59.595Z,8.80
2018-01-18T10:48:59.614Z,8.89
2018-01-18T10:50:52.568Z,8.77
2018-01-18T10:51:52.578Z,8.65
2018-01-18T10:53:45.521Z,8.70
2018-01-18T12:36:49.594Z,5.86
2018-01-18T12:37:49.564Z,5.90
2018-01-18T12:39:42.745Z,5.94
2018-01-18T12:40:43.033Z,5.99
2018-01-18T12:42:35.281Z,6.00
2018-01-18T12:43:35.279Z,6.08
2018-01-18T12:45:28.919Z,6.11
2018-01-18T12:46:28.355Z,6.04
2018-01-18T12:48:21.072Z,6.17
2018-01-18T12:49:21.086Z,6.19
2018-01-18T12:51:13.997Z,6.17
2018-01-18T12:52:13.992Z,6.12
2018-01-18T12:54:06.890Z,6.09
2018-01-18T12:55:06.904Z,6.18
2018-01-18T12:56:59.814Z,6.25
2018-01-18T12:57:59.811Z,6.22
2018-01-18T12:59:52.710Z,6.18
2018-01-18T13:00:52.723Z,6.15
2018-01-18T13:02:45.651Z,6.18
2018-01-18T13:03:45.635Z,6.17
2018-01-18T13:05:38.545Z,6.21
2018-01-18T13:06:38.542Z,6.21
2018-01-18T13:08:31.929Z,6.34
2018-01-18T13:09:31.946Z,6.36
2018-01-18T13:11:25.865Z,6.37
2018-01-18T13:12:25.862Z,6.38
2018-01-18T13:14:18.754Z,6.30
2018-01-18T13:15:18.771Z,6.33
2018-01-18T13:21:00.977Z,6.34
2018-01-18T13:22:01.002Z,6.30
2018-01-18T13:23:54.024Z,6.41
2018-01-18T13:24:53.907Z,6.48
2018-01-18T13:26:46.821Z,6.54
2018-01-18T13:27:46.822Z,6.49
2018-01-18T13:29:39.715Z,6.52
2018-01-18T13:30:39.730Z,6.56
2018-01-18T13:32:32.644Z,6.55
2018-01-18T13:33:32.642Z,6.56
2018-01-18T13:35:25.558Z,6.64
2018-01-18T13:36:25.556Z,6.69
2018-01-18T13:38:18.448Z,6.62
2018-01-18T13:39:18.466Z,6.71
2018-01-18T13:41:11.378Z,6.62
2018-01-18T13:42:11.377Z,6.61
2018-01-18T13:44:04.274Z,6.59
2018-01-18T13:45:04.291Z,6.59
2018-01-18T13:46:57.406Z,6.49
2018-01-18T13:47:57.407Z,6.59
2018-01-18T13:49:50.298Z,6.55
2018-01-18T13:50:50.316Z,6.59
2018-01-18T13:52:43.229Z,6.54
2018-01-18T13:53:43.227Z,6.61
2018-01-18T13:55:36.143Z,6.61
2018-01-18T13:56:36.140Z,6.49
2018-01-18T13:58:29.036Z,6.61
2018-01-18T13:59:29.053Z,6.56
2018-01-18T14:01:21.962Z,6.49
2018-01-18T14:02:21.962Z,6.46
2018-01-18T14:04:14.859Z,6.46
2018-01-18T14:05:14.875Z,6.52
2018-01-18T14:07:07.785Z,6.48
2018-01-18T14:08:07.783Z,6.55
2018-01-18T14:10:01.063Z,6.49
2018-01-18T14:11:00.725Z,6.55
2018-01-18T14:12:53.612Z,6.43
2018-01-18T14:13:53.611Z,6.48
2018-01-18T14:15:46.527Z,6.49
2018-01-18T14:16:46.525Z,6.44
2018-01-18T14:18:46.542Z,6.54
2018-01-18T14:19:39.439Z,6.56
2018-01-18T14:21:32.351Z,6.54
2018-01-18T14:22:32.353Z,6.49
2018-01-18T14:24:25.245Z,6.52
2018-01-18T14:25:25.262Z,6.48
2018-01-18T14:27:18.178Z,6.59
2018-01-18T14:28:18.172Z,6.71
2018-01-18T14:30:12.271Z,6.64
2018-01-18T14:31:12.284Z,6.73
2018-01-18T14:33:05.214Z,6.67
2018-01-18T14:34:05.191Z,6.58
2018-01-18T14:35:58.104Z,6.52
2018-01-18T14:36:58.104Z,6.51
2018-01-18T14:38:50.998Z,6.51
2018-01-18T14:39:51.015Z,6.54
2018-01-18T14:41:43.939Z,6.51
2018-01-18T14:42:43.935Z,6.38
2018-01-18T14:44:36.830Z,6.34
2018-01-18T14:45:36.849Z,6.44
2018-01-18T14:47:29.761Z,6.30
2018-01-18T14:48:29.759Z,6.21
2018-01-18T14:50:22.658Z,5.99
2018-01-18T14:51:22.674Z,6.00
2018-01-18T14:53:15.586Z,5.90
2018-01-18T14:54:15.582Z,5.76
2018-01-18T14:56:09.493Z,5.78
2018-01-18T14:57:09.489Z,5.71
2018-01-18T14:59:02.388Z,5.58
2018-01-18T15:00:02.402Z,5.61
2018-01-18T15:01:55.318Z,5.53
2018-01-18T15:02:55.315Z,5.53
2018-01-18T15:04:48.211Z,5.48
2018-01-18T15:05:48.228Z,5.38
2018-01-18T15:07:41.148Z,5.33
2018-01-18T15:08:41.145Z,5.27
2018-01-18T15:10:34.038Z,5.20
2018-01-18T15:11:34.068Z,5.21
2018-01-18T15:13:27.039Z,5.22
2018-01-18T15:14:27.038Z,5.15
2018-01-18T15:16:19.954Z,5.20
2018-01-18T15:17:19.949Z,5.21
2018-01-18T15:19:12.846Z,5.21
2018-01-18T15:20:12.933Z,5.21
2018-01-18T15:22:05.774Z,5.24
2018-01-18T15:23:05.768Z,5.27
2018-01-18T15:24:58.661Z,5.20
2018-01-18T15:25:58.683Z,5.31
2018-01-18T15:27:51.592Z,5.38
2018-01-18T15:28:51.588Z,5.35
2018-01-18T15:30:44.480Z,5.38
2018-01-18T15:31:44.506Z,5.43
2018-01-18T15:33:37.405Z,5.38
2018-01-18T15:34:37.401Z,5.46
2018-01-18T15:36:30.327Z,5.48
2018-01-18T15:37:30.313Z,5.53
2018-01-18T15:39:23.204Z,5.45
2018-01-18T15:40:23.221Z,5.58
2018-01-18T15:42:16.174Z,5.61
2018-01-18T15:43:16.128Z,5.49
2018-01-18T15:45:10.015Z,5.42
2018-01-18T15:46:10.033Z,5.45
2018-01-18T15:48:02.946Z,5.40
2018-01-18T15:49:02.940Z,5.45
2018-01-18T15:50:55.834Z,5.53
2018-01-18T15:51:55.848Z,5.42
2018-01-18T15:53:49.306Z,5.46
2018-01-18T15:54:49.159Z,5.56
2018-01-18T15:56:42.054Z,5.51
2018-01-18T15:57:42.076Z,5.58
2018-01-18T15:59:34.984Z,5.51
2018-01-18T16:00:34.979Z,5.61
2018-01-18T16:02:27.894Z,5.57
2018-01-18T16:03:27.887Z,5.53
2018-01-18T16:05:20.785Z,5.57
2018-01-18T16:06:20.798Z,5.57
2018-01-18T16:08:13.712Z,5.63
2018-01-18T16:09:13.707Z,5.63
2018-01-18T16:11:06.642Z,5.63
2018-01-18T16:12:06.671Z,5.57
2018-01-18T16:13:59.573Z,5.54
2018-01-18T16:14:59.560Z,5.57
2018-01-18T16:16:52.468Z,5.71
2018-01-18T16:17:52.467Z,5.61
2018-01-18T16:19:45.380Z,5.51
2018-01-18T16:20:45.377Z,5.60
2018-01-18T16:22:38.273Z,5.58
2018-01-18T16:23:38.287Z,5.54
2018-01-18T16:25:31.300Z,5.60
2018-01-18T16:26:31.195Z,5.56
2018-01-18T16:28:24.111Z,5.53
2018-01-18T16:29:24.108Z,5.46
2018-01-18T16:31:17.004Z,5.27
2018-01-18T16:32:17.038Z,5.40
2018-01-18T16:34:09.932Z,5.31
2018-01-18T16:35:09.930Z,5.35
2018-01-18T16:37:02.822Z,5.33
2018-01-18T16:38:02.841Z,5.31
2018-01-18T16:39:56.801Z,5.24
2018-01-18T16:40:56.779Z,5.22
2018-01-18T16:42:49.650Z,5.33
2018-01-18T16:43:49.666Z,5.39
2018-01-18T16:45:42.582Z,5.30
2018-01-18T16:46:42.579Z,5.33
2018-01-18T16:48:35.488Z,5.27
2018-01-18T16:49:35.515Z,5.31
2018-01-18T16:51:28.417Z,5.38
2018-01-18T16:52:28.415Z,5.35
2018-01-18T16:54:21.330Z,5.28
2018-01-18T16:55:21.325Z,5.39
2018-01-18T16:57:14.220Z,5.27
2018-01-18T16:58:14.247Z,5.31
2018-01-18T17:00:07.194Z,5.25
2018-01-18T17:01:07.264Z,5.40
2018-01-18T17:03:00.083Z,5.42
2018-01-18T17:04:00.098Z,5.42
2018-01-18T17:05:53.012Z,5.45
2018-01-18T17:06:53.008Z,5.40
2018-01-18T17:08:45.905Z,5.49
2018-01-18T17:09:45.921Z,5.49
2018-01-18T17:11:38.839Z,5.38
2018-01-18T17:12:38.838Z,5.54
2018-01-18T17:14:31.752Z,5.51
2018-01-18T17:15:31.809Z,5.61
2018-01-18T17:17:24.664Z,5.60
2018-01-18T17:18:24.675Z,5.65
2018-01-18T17:20:17.579Z,5.63
2018-01-18T17:21:17.573Z,5.63
2018-01-18T17:23:10.467Z,5.49
2018-01-18T17:24:10.483Z,5.57
2018-01-18T17:26:03.404Z,5.65
2018-01-18T17:27:03.403Z,5.58
2018-01-18T17:28:56.298Z,5.67
2018-01-18T17:29:56.311Z,5.57
2018-01-18T17:31:49.225Z,5.61
2018-01-18T17:32:49.222Z,5.67
2018-01-18T17:34:42.118Z,5.67
2018-01-18T17:35:42.131Z,5.61
2018-01-18T17:37:35.045Z,5.61
2018-01-18T17:38:35.039Z,5.65
2018-01-18T17:40:27.937Z,5.71
2018-01-18T17:41:27.959Z,5.67
2018-01-18T17:43:20.866Z,5.65
2018-01-18T17:44:20.864Z,5.58
2018-01-18T17:46:13.780Z,5.51
2018-01-18T17:47:13.781Z,5.42
2018-01-18T17:49:06.683Z,5.48
2018-01-18T17:50:06.687Z,5.51
2018-01-18T17:51:59.601Z,5.53
2018-01-18T17:52:59.595Z,5.42
2018-01-18T17:54:52.492Z,5.40
2018-01-18T17:55:52.506Z,5.36
2018-01-18T17:57:45.420Z,5.33
2018-01-18T17:58:45.421Z,5.28
2018-01-18T18:00:38.312Z,5.30
2018-01-18T18:01:38.328Z,5.39
2018-01-18T18:03:31.281Z,5.38
2018-01-18T18:04:31.260Z,5.33
2018-01-18T18:06:24.168Z,5.30
2018-01-18T18:07:24.172Z,5.22
2018-01-18T18:09:17.062Z,5.24
2018-01-18T18:10:17.078Z,5.20
2018-01-18T18:12:09.996Z,5.20
2018-01-18T18:13:09.986Z,5.31
2018-01-18T18:15:02.886Z,5.36
2018-01-18T18:16:02.903Z,5.33
2018-01-18T18:17:55.816Z,5.18
2018-01-18T18:18:55.813Z,5.25
2018-01-18T18:20:48.705Z,5.22
2018-01-18T18:21:48.720Z,5.24
2018-01-18T18:23:41.632Z,5.28
2018-01-18T18:24:41.633Z,5.24
2018-01-18T18:26:34.532Z,5.07
2018-01-18T18:27:34.542Z,5.18
2018-01-18T18:29:27.457Z,5.27
2018-01-18T18:30:27.459Z,5.27
2018-01-18T18:32:20.373Z,5.21
2018-01-18T18:33:20.360Z,5.27
2018-01-18T18:35:13.350Z,5.28
2018-01-18T18:36:13.274Z,5.27
2018-01-18T18:38:06.183Z,5.33
2018-01-18T18:39:06.181Z,5.30
2018-01-18T18:40:59.268Z,5.24
2018-01-18T18:41:59.284Z,5.22
2018-01-18T18:43:52.198Z,5.28
2018-01-18T18:44:52.192Z,5.33
2018-01-18T18:46:45.085Z,5.22
2018-01-18T18:47:45.107Z,5.27
2018-01-18T18:49:38.017Z,5.31
2018-01-18T18:50:38.010Z,5.20
2018-01-18T18:52:30.915Z,5.20
2018-01-18T18:53:31.002Z,5.33
2018-01-18T18:55:23.847Z,5.22
2018-01-18T18:56:23.847Z,5.22
2018-01-18T18:58:16.932Z,5.35
2018-01-18T18:59:16.764Z,5.28
2018-01-18T19:01:09.662Z,5.33
2018-01-18T19:02:09.677Z,5.36
2018-01-18T19:04:02.586Z,5.35
2018-01-18T19:05:02.584Z,5.35
2018-01-18T19:06:56.481Z,5.25
2018-01-18T19:07:56.503Z,5.30
2018-01-18T19:09:49.408Z,5.42
2018-01-18T19:10:49.408Z,5.45
2018-01-18T19:12:42.340Z,5.39
2018-01-18T19:13:42.358Z,5.39
2018-01-18T19:15:35.270Z,5.20
2018-01-18T19:16:35.266Z,5.25
2018-01-18T19:18:28.179Z,5.35
2018-01-18T19:19:28.216Z,5.33
2018-01-18T19:21:21.106Z,5.30
2018-01-18T19:22:21.102Z,5.35
2018-01-18T19:24:14.121Z,5.45
2018-01-18T19:25:14.013Z,5.43
2018-01-18T19:27:06.908Z,5.43
2018-01-18T19:28:06.923Z,5.42
2018-01-18T19:30:00.612Z,5.28
2018-01-18T19:31:00.589Z,5.22
2018-01-18T19:32:53.486Z,5.35
2018-01-18T19:33:53.507Z,5.21
2018-01-18T19:35:47.418Z,5.13
2018-01-18T19:36:47.429Z,5.13
2018-01-18T19:38:40.438Z,5.15
2018-01-18T19:39:40.461Z,5.21
2018-01-18T19:41:33.371Z,5.20
2018-01-18T19:42:33.368Z,5.18
2018-01-18T19:44:26.267Z,5.17
2018-01-18T19:45:26.279Z,5.15
2018-01-18T19:47:19.202Z,5.12
2018-01-18T19:48:19.187Z,5.04
2018-01-18T19:50:12.101Z,5.09
2018-01-18T19:51:12.097Z,5.06
2018-01-18T19:53:05.014Z,5.07
2018-01-18T19:54:05.024Z,5.13
2018-01-18T19:55:57.940Z,5.09
2018-01-18T19:56:57.959Z,5.04
2018-01-18T19:58:50.834Z,5.09
2018-01-18T19:59:50.848Z,5.07
2018-01-18T20:01:43.764Z,5.06
2018-01-18T20:02:43.759Z,5.00
2018-01-18T20:04:36.655Z,5.03
2018-01-18T20:05:36.671Z,4.99
2018-01-18T20:07:29.585Z,5.06
2018-01-18T20:08:29.581Z,5.00
2018-01-18T20:10:22.475Z,4.91
2018-01-18T20:11:22.493Z,4.92
2018-01-18T20:13:15.416Z,4.78
2018-01-18T20:14:15.400Z,4.86
2018-01-18T20:16:08.332Z,4.77
2018-01-18T20:17:08.427Z,4.82
2018-01-18T20:19:01.222Z,4.80
2018-01-18T20:20:01.264Z,4.77
2018-01-18T20:21:54.231Z,4.72
2018-01-18T20:22:54.148Z,4.72
2018-01-18T20:24:47.044Z,4.70
2018-01-18T20:25:47.054Z,4.70
2018-01-18T20:27:39.998Z,4.66
2018-01-18T20:28:39.988Z,4.69
2018-01-18T20:30:32.876Z,4.54
2018-01-18T20:31:32.891Z,4.58
2018-01-18T20:33:25.877Z,4.59
2018-01-18T20:34:25.832Z,4.58
2018-01-18T20:36:18.691Z,4.58
2018-01-18T20:37:18.706Z,4.59
2018-01-18T20:39:11.615Z,4.59
2018-01-18T20:40:11.611Z,4.58
2018-01-18T20:42:04.536Z,4.59
2018-01-18T20:43:04.527Z,4.59
2018-01-18T20:44:57.454Z,4.52
2018-01-18T20:45:57.456Z,4.65
2018-01-18T20:47:50.375Z,4.60
2018-01-18T20:48:50.376Z,4.59
2018-01-18T20:50:43.265Z,4.67
2018-01-18T20:51:43.283Z,4.75
2018-01-18T20:53:36.197Z,4.59
2018-01-18T20:54:36.192Z,4.69
2018-01-18T20:56:29.084Z,4.66